Time;durP1;ratioP1;P1;durP2;ratioP2;P2;SDS_P1;SDS_P2;PMS_P1;PMS_P2;Temp;Humidity;BMP_temperature;BMP_pressure;BME280_temperature;BME280_humidity;BME280_pressure;Samples;Min_cycle;Max_cycle;Signal;HPM_P1;HPM_P2
2023/06/07 00:02:11;;;;;;;;;19.00;17.00;;;;;23.57;37.50;101101.23;112082;1263;19386;-39
2023/06/07 00:04:39;;;;;;;;;21.00;20.00;;;;;23.57;37.39;101095.64;112270;1248;21280;-39
2023/06/07 00:07:07;;;;;;;;;22.00;20.00;;;;;23.57;37.42;101096.02;112027;1248;21366;-39
2023/06/07 00:09:34;;;;;;;;;19.00;17.00;;;;;23.56;37.30;101091.77;112146;1248;20723;-39
2023/06/07 00:12:02;;;;;;;;;22.00;19.00;;;;;23.56;37.34;101093.73;112006;1263;19945;-39
2023/06/07 00:14:29;;;;;;;;;17.00;16.00;;;;;23.56;37.21;101088.84;112187;1263;20113;-39
2023/06/07 00:16:57;;;;;;;;;16.00;16.00;;;;;23.57;37.16;101089.83;112010;1263;20662;-38
2023/06/07 00:19:25;;;;;;;;;17.00;15.00;;;;;23.56;37.16;101084.85;112215;1263;19865;-44
2023/06/07 00:21:52;;;;;;;;;16.00;15.50;;;;;23.55;37.27;101083.08;111987;1263;18895;-39
2023/06/07 00:24:19;;;;;;;;;16.50;16.00;;;;;23.55;37.06;101080.89;112170;1248;20787;-39
2023/06/07 00:26:47;;;;;;;;;16.50;16.00;;;;;23.55;36.89;101080.41;112028;1248;20127;-39
2023/06/07 00:29:14;;;;;;;;;19.00;19.00;;;;;23.56;36.99;101080.68;112282;1256;18681;-39
2023/06/07 00:31:42;;;;;;;;;16.00;15.00;;;;;23.55;36.74;101082.59;112099;1263;20552;-39
2023/06/07 00:34:09;;;;;;;;;18.67;17.00;;;;;23.54;36.62;101083.45;112249;1263;19964;-39
2023/06/07 00:36:37;;;;;;;;;15.00;13.00;;;;;23.53;36.76;101079.16;112139;1263;19967;-39
2023/06/07 00:39:04;;;;;;;;;17.00;15.00;;;;;23.53;36.62;101085.18;112277;1248;20849;-39
2023/06/07 00:41:31;;;;;;;;;16.00;13.00;;;;;23.53;36.47;101085.62;112109;1248;21184;-39
2023/06/07 00:44:01;;;;;;;;;12.50;12.00;;;;;23.52;36.67;101086.63;112299;1263;20060;-41
2023/06/07 00:46:29;;;;;;;;;15.00;15.00;;;;;23.51;36.52;101086.48;112304;1248;21022;-40
2023/06/07 00:48:56;;;;;;;;;15.00;13.00;;;;;23.51;36.56;101085.15;112091;1248;20182;-39
2023/06/07 00:51:24;;;;;;;;;16.00;15.50;;;;;23.49;36.59;101087.14;112206;1248;19981;-39
2023/06/07 00:53:51;;;;;;;;;17.00;16.33;;;;;23.48;36.94;101082.73;112077;1248;19332;-40
2023/06/07 00:56:19;;;;;;;;;18.00;16.00;;;;;23.48;37.11;101083.26;112097;1264;193996;-40
2023/06/07 00:58:46;;;;;;;;;15.00;13.00;;;;;23.48;37.19;101086.57;112052;1248;19942;-39
2023/06/07 01:01:17;;;;;;;;;22.00;20.00;;;;;23.48;37.32;101088.18;112214;1263;21020;-41
2023/06/07 01:03:45;;;;;;;;;16.50;16.00;;;;;23.46;37.95;101095.16;112125;1248;20147;-39
2023/06/07 01:06:13;;;;;;;;;23.00;22.00;;;;;23.44;38.32;101096.70;111933;1264;20176;-39
2023/06/07 01:08:40;;;;;;;;;23.00;22.00;;;;;23.44;38.37;101091.40;112135;1263;19332;-39
2023/06/07 01:11:08;;;;;;;;;23.67;22.33;;;;;23.44;38.42;101093.38;111979;1248;18928;-42
2023/06/07 01:13:35;;;;;;;;;18.50;18.50;;;;;23.45;38.60;101090.02;112147;1264;18656;-39
2023/06/07 01:16:03;;;;;;;;;24.00;23.50;;;;;23.45;38.74;101089.85;111967;1264;19318;-39
2023/06/07 01:18:30;;;;;;;;;23.00;23.00;;;;;23.45;38.84;101095.48;112112;1248;18743;-39
2023/06/07 01:20:59;;;;;;;;;29.00;23.00;;;;;23.43;39.03;101088.91;111934;1264;18726;-37
2023/06/07 01:23:28;;;;;;;;;24.00;23.00;;;;;23.43;39.26;101084.94;112066;1248;21959;-38
2023/06/07 01:25:57;;;;;;;;;22.50;20.50;;;;;23.43;39.31;101087.51;112144;1263;18566;-38
2023/06/07 01:28:25;;;;;;;;;24.00;22.00;;;;;23.43;39.52;101088.95;112144;1248;20115;-38
2023/06/07 01:30:52;;;;;;;;;27.00;27.00;;;;;23.44;39.39;101085.92;111978;1263;20727;-40
2023/06/07 01:33:19;;;;;;;;;24.50;22.50;;;;;23.43;39.48;101081.96;112154;1263;18567;-40
2023/06/07 01:35:47;;;;;;;;;22.50;22.00;;;;;23.43;39.60;101078.92;112014;1248;21608;-39
2023/06/07 01:38:14;;;;;;;;;22.67;22.67;;;;;23.43;39.64;101077.34;112169;1248;20767;-43
2023/06/07 01:40:42;;;;;;;;;27.00;24.50;;;;;23.42;39.87;101077.54;112006;1263;18755;-40
2023/06/07 01:43:09;;;;;;;;;23.00;22.00;;;;;23.43;39.86;101075.30;112196;1248;20128;-40
2023/06/07 01:45:37;;;;;;;;;31.00;24.00;;;;;23.42;40.00;101073.34;112013;1263;19206;-40
2023/06/07 01:48:04;;;;;;;;;25.67;23.00;;;;;23.42;39.89;101074.99;112149;1263;19929;-40
2023/06/07 01:50:32;;;;;;;;;20.50;20.00;;;;;23.42;40.20;101073.45;111984;1264;20101;-39
2023/06/07 01:52:59;;;;;;;;;22.00;22.00;;;;;23.40;40.05;101073.44;112175;1251;20978;-41
2023/06/07 01:55:27;;;;;;;;;25.00;23.50;;;;;23.41;40.23;101075.52;112023;1248;20040;-40
2023/06/07 01:57:54;;;;;;;;;22.00;22.00;;;;;23.40;40.49;101072.21;112167;1264;20110;-40
2023/06/07 02:00:22;;;;;;;;;18.50;18.00;;;;;23.39;40.30;101072.08;112033;1248;20719;-40
2023/06/07 02:02:49;;;;;;;;;20.00;20.00;;;;;23.39;40.63;101074.89;112183;1248;21348;-40
2023/06/07 02:05:17;;;;;;;;;19.00;19.00;;;;;23.38;40.56;101079.19;111965;1248;20071;-40
2023/06/07 02:07:45;;;;;;;;;24.00;23.00;;;;;23.37;40.67;101076.34;112127;1248;20965;-40
2023/06/07 02:10:13;;;;;;;;;22.50;21.50;;;;;23.37;40.67;101075.55;111917;1248;20178;-40
2023/06/07 02:12:40;;;;;;;;;23.00;21.00;;;;;23.35;40.69;101074.80;112125;1263;18818;-40
2023/06/07 02:15:08;;;;;;;;;20.00;20.00;;;;;23.35;40.76;101076.65;111925;1248;21952;-40
2023/06/07 02:17:35;;;;;;;;;24.00;22.00;;;;;23.35;40.66;101072.46;112083;1263;18543;-40
2023/06/07 02:20:04;;;;;;;;;22.00;20.00;;;;;23.34;40.60;101075.27;111981;1248;18901;-40
2023/06/07 02:22:31;;;;;;;;;23.00;22.00;;;;;23.33;40.69;101071.95;112053;1260;20788;-40
2023/06/07 02:24:59;;;;;;;;;22.00;19.33;;;;;23.33;40.88;101073.92;112238;1248;19997;-41
2023/06/07 02:27:27;;;;;;;;;23.00;21.00;;;;;23.33;40.76;101074.34;111978;1263;21087;-40
2023/06/07 02:29:54;;;;;;;;;27.50;26.00;;;;;23.27;40.83;101071.04;112155;1263;20819;-40
2023/06/07 02:32:22;;;;;;;;;27.00;27.00;;;;;22.90;41.78;101073.16;111997;1264;19917;-40
2023/06/07 02:34:49;;;;;;;;;30.00;30.00;;;;;22.61;42.19;101072.30;112205;1264;20065;-40
2023/06/07 02:37:17;;;;;;;;;34.00;30.00;;;;;22.51;42.67;101074.45;112011;1264;20668;-40
2023/06/07 02:39:45;;;;;;;;;35.00;33.00;;;;;22.45;42.79;101076.46;112147;1264;19906;-40
2023/06/07 02:42:12;;;;;;;;;37.00;36.00;;;;;22.34;42.97;101077.77;111998;1257;18701;-39
2023/06/07 02:44:39;;;;;;;;;34.00;32.00;;;;;22.20;43.56;101079.38;112151;1264;19336;-40
2023/06/07 02:47:07;;;;;;;;;39.50;36.00;;;;;22.18;43.64;101079.38;112012;1264;19944;-40
2023/06/07 02:49:34;;;;;;;;;35.50;35.50;;;;;22.12;43.86;101080.98;112198;1248;20145;-40
2023/06/07 02:52:02;;;;;;;;;40.00;37.00;;;;;22.11;43.88;101083.39;112024;1248;20747;-39
2023/06/07 02:54:29;;;;;;;;;42.00;38.00;;;;;22.07;44.03;101084.60;112179;1263;18574;-40
2023/06/07 02:56:56;;;;;;;;;38.00;37.00;;;;;22.05;44.18;101085.83;112038;1263;20063;-39
2023/06/07 02:59:24;;;;;;;;;44.00;41.00;;;;;21.99;44.52;101087.89;112204;1248;20720;-40
2023/06/07 03:01:52;;;;;;;;;38.00;37.00;;;;;21.95;44.81;101091.15;112000;1263;19937;-40
2023/06/07 03:04:19;;;;;;;;;50.50;43.00;;;;;21.94;45.11;101090.59;112173;1263;20035;-40
2023/06/07 03:06:51;;;;;;;;;39.33;37.33;;;;;21.98;45.24;101086.55;111990;1256;19495;-39
2023/06/07 03:09:19;;;;;;;;;44.00;42.50;;;;;21.95;45.46;101084.40;112228;1248;20334;-40
2023/06/07 03:11:47;;;;;;;;;41.00;41.00;;;;;21.91;45.89;101079.60;112022;1264;21202;-40
2023/06/07 03:14:14;;;;;;;;;42.00;39.00;;;;;21.87;46.11;101081.70;112195;1256;20805;-40
2023/06/07 03:16:44;;;;;;;;;46.00;42.00;;;;;21.86;46.48;101081.66;112020;1264;18550;-39
2023/06/07 03:19:12;;;;;;;;;44.00;41.00;;;;;21.81;46.66;101086.93;112004;1248;20396;-39
2023/06/07 03:21:40;;;;;;;;;43.50;40.00;;;;;21.87;46.73;101091.59;112144;1263;20724;-40
2023/06/07 03:24:08;;;;;;;;;43.00;42.00;;;;;21.86;46.85;101091.69;111957;1263;19936;-39
2023/06/07 03:26:35;;;;;;;;;44.50;42.50;;;;;21.80;46.92;101093.92;112149;1248;18978;-39
2023/06/07 03:29:03;;;;;;;;;46.00;42.00;;;;;21.75;47.11;101097.28;111954;1263;20723;-40
2023/06/07 03:31:31;;;;;;;;;47.00;43.00;;;;;21.76;47.02;101096.05;112129;1263;18588;-39
2023/06/07 03:33:59;;;;;;;;;44.00;43.00;;;;;21.79;47.15;101097.21;112200;1263;18851;-40
2023/06/07 03:36:28;;;;;;;;;45.00;43.00;;;;;21.79;47.13;101093.02;112045;1248;22349;-40
2023/06/07 03:38:56;;;;;;;;;40.33;39.67;;;;;21.76;47.31;101094.93;112063;1263;20036;-40
2023/06/07 03:41:23;;;;;;;;;41.00;39.50;;;;;21.71;47.39;101094.49;112079;1263;21165;-39
2023/06/07 03:43:51;;;;;;;;;42.00;39.33;;;;;21.71;47.39;101092.97;112090;1248;20788;-40
2023/06/07 03:46:18;;;;;;;;;42.00;38.00;;;;;21.77;47.34;101095.40;112046;1263;18795;-42
2023/06/07 03:48:46;;;;;;;;;37.00;36.00;;;;;21.81;47.10;101094.44;112078;1248;21486;-40
2023/06/07 03:51:13;;;;;;;;;41.00;37.00;;;;;21.78;47.28;101095.65;111917;1256;20770;-41
2023/06/07 03:53:40;;;;;;;;;35.50;35.50;;;;;21.78;46.98;101094.71;112100;1248;19960;-39
2023/06/07 03:56:08;;;;;;;;;48.50;40.50;;;;;21.84;47.06;101094.94;111934;1263;21108;-40
2023/06/07 03:58:35;;;;;;;;;40.00;38.50;;;;;21.81;47.05;101097.17;112111;1263;20685;-40
2023/06/07 04:01:03;;;;;;;;;40.00;39.50;;;;;21.78;46.92;101098.61;111927;1263;20282;-40
2023/06/07 04:03:30;;;;;;;;;40.00;38.50;;;;;21.78;47.10;101097.38;112092;1248;20149;-40
2023/06/07 04:05:58;;;;;;;;;36.00;35.50;;;;;21.80;47.02;101097.23;111938;1248;22221;-39
2023/06/07 04:08:25;;;;;;;;;44.00;39.00;;;;;21.79;47.14;101098.23;112128;1263;18541;-40
2023/06/07 04:10:53;;;;;;;;;40.00;37.00;;;;;21.77;47.17;101101.88;111927;1256;18787;-40
2023/06/07 04:13:20;;;;;;;;;41.50;35.50;;;;;21.79;47.14;101101.58;112113;1263;19210;-40
2023/06/07 04:15:48;;;;;;;;;40.00;37.00;;;;;21.77;47.15;101100.99;111922;1263;18512;-39
2023/06/07 04:18:15;;;;;;;;;40.50;39.00;;;;;21.80;47.04;101095.93;112079;1263;18726;-39
2023/06/07 04:20:43;;;;;;;;;36.50;35.50;;;;;21.79;47.21;101097.14;111918;1263;19428;-39
2023/06/07 04:23:10;;;;;;;;;42.00;39.00;;;;;21.73;47.43;101099.48;112102;1263;18540;-40
2023/06/07 04:25:38;;;;;;;;;43.00;38.50;;;;;21.74;47.38;101098.45;111922;1263;20149;-40
2023/06/07 04:28:06;;;;;;;;;37.50;34.50;;;;;21.82;47.37;101100.13;112096;1248;20757;-40
2023/06/07 04:30:36;;;;;;;;;42.00;41.00;;;;;21.80;47.38;101101.64;111959;1251;19980;-40
2023/06/07 04:33:04;;;;;;;;;42.50;39.50;;;;;21.81;47.46;101104.64;112151;1263;19964;-38
2023/06/07 04:35:33;;;;;;;;;40.00;38.67;;;;;21.77;47.88;101100.14;112022;1263;20696;-40
2023/06/07 04:38:02;;;;;;;;;42.00;39.00;;;;;21.79;47.96;101100.27;112084;1248;21256;-40
2023/06/07 04:40:30;;;;;;;;;37.00;36.00;;;;;21.82;47.88;101101.02;112139;1248;20264;-40
2023/06/07 04:43:04;;;;;;;;;44.00;41.00;;;;;21.83;48.17;101099.59;111978;1251;21095;-40
2023/06/07 04:45:32;;;;;;;;;42.50;39.50;;;;;21.85;48.35;101101.59;112006;1263;19923;-40
2023/06/07 04:47:59;;;;;;;;;45.50;43.00;;;;;21.85;48.32;101103.77;112149;1263;21391;-47
2023/06/07 04:50:28;;;;;;;;;44.00;41.00;;;;;21.91;48.39;101103.65;112034;1263;19331;-40
2023/06/07 04:53:00;;;;;;;;;44.00;41.00;;;;;21.92;48.26;101103.70;112069;1263;19862;-40
2023/06/07 04:55:29;;;;;;;;;46.67;41.33;;;;;21.92;47.83;101104.39;111944;1263;18709;-37
2023/06/07 04:57:56;;;;;;;;;46.00;41.00;;;;;21.93;48.00;101103.61;112038;1248;21686;-40
2023/06/07 05:00:24;;;;;;;;;41.00;40.00;;;;;21.98;47.83;101104.60;112241;1248;19974;-40
2023/06/07 05:02:52;;;;;;;;;46.00;43.00;;;;;22.00;48.06;101103.28;112003;1263;18822;-41
2023/06/07 05:05:19;;;;;;;;;41.00;38.00;;;;;22.02;48.24;101107.02;112132;1263;22061;-41
2023/06/07 05:07:49;;;;;;;;;45.00;42.00;;;;;22.12;48.28;101111.95;111986;1263;18669;-40
2023/06/07 05:10:16;;;;;;;;;42.50;40.00;;;;;22.22;48.16;101110.07;112033;1248;20040;-40
2023/06/07 05:12:44;;;;;;;;;41.00;38.00;;;;;22.14;48.89;101110.25;112212;1263;19287;-42
2023/06/07 05:15:11;;;;;;;;;44.00;39.50;;;;;22.18;49.26;101111.48;112019;1263;20972;-43
2023/06/07 05:17:39;;;;;;;;;42.00;42.00;;;;;22.27;49.39;101114.39;112189;1263;18883;-41
2023/06/07 05:20:10;;;;;;;;;46.00;42.00;;;;;22.32;49.45;101113.14;112030;1263;19478;-40
2023/06/07 05:22:38;;;;;;;;;36.00;35.00;;;;;22.30;49.02;101113.52;111958;1263;20217;-41
2023/06/07 05:25:05;;;;;;;;;39.00;37.00;;;;;22.32;48.49;101112.77;112089;1263;18716;-39
2023/06/07 05:27:32;;;;;;;;;39.00;38.00;;;;;22.29;47.99;101113.86;111935;1263;19283;-38
2023/06/07 05:30:00;;;;;;;;;37.00;33.00;;;;;22.24;47.33;101112.35;112152;1264;18508;-39
2023/06/07 05:32:27;;;;;;;;;33.00;31.00;;;;;22.24;46.87;101111.13;111968;1263;21204;-38
2023/06/07 05:34:57;;;;;;;;;35.00;32.00;;;;;22.29;46.52;101110.01;112148;1263;20099;-39
2023/06/07 05:37:25;;;;;;;;;33.50;31.50;;;;;22.41;45.72;101109.09;112148;1264;19916;-40
2023/06/07 05:39:52;;;;;;;;;35.50;32.00;;;;;22.45;45.80;101112.83;111972;1264;20037;-40
2023/06/07 05:42:20;;;;;;;;;38.50;32.50;;;;;22.43;45.59;101115.23;112163;1248;19282;-40
2023/06/07 05:44:47;;;;;;;;;27.00;27.00;;;;;22.42;45.26;101114.65;111998;1264;18562;-39
2023/06/07 05:47:15;;;;;;;;;30.67;27.33;;;;;22.45;44.48;101113.77;112132;1263;20029;-39
2023/06/07 05:49:42;;;;;;;;;26.00;25.50;;;;;22.46;43.90;101109.95;111965;1263;19365;-39
2023/06/07 05:52:10;;;;;;;;;28.33;25.33;;;;;22.48;43.54;101115.38;112152;1263;18579;-40
2023/06/07 05:54:37;;;;;;;;;25.50;24.00;;;;;22.55;43.13;101112.94;111987;1263;19982;-39
2023/06/07 05:57:05;;;;;;;;;34.00;32.00;;;;;22.56;42.69;101114.40;112146;1264;19354;-40
2023/06/07 05:59:33;;;;;;;;;31.50;30.00;;;;;22.62;42.54;101113.21;111927;1263;18471;-40
2023/06/07 06:02:01;;;;;;;;;29.00;27.00;;;;;22.65;42.18;101110.96;112114;1264;18860;-40
2023/06/07 06:04:28;;;;;;;;;29.00;25.50;;;;;22.70;42.11;101115.71;112214;1264;20675;-40
2023/06/07 06:06:56;;;;;;;;;26.00;25.00;;;;;22.74;42.08;101113.19;112081;1248;18855;-40
2023/06/07 06:09:24;;;;;;;;;24.00;21.50;;;;;22.83;42.18;101119.92;112093;1264;18717;-39
2023/06/07 06:11:51;;;;;;;;;25.00;24.00;;;;;22.89;42.36;101114.77;112093;1248;20719;-39
2023/06/07 06:14:20;;;;;;;;;27.33;25.00;;;;;22.92;42.47;101115.33;112152;1264;20141;-40
2023/06/07 06:16:48;;;;;;;;;25.00;25.00;;;;;22.91;42.68;101120.60;111922;1248;21326;-39
2023/06/07 06:19:15;;;;;;;;;22.50;21.50;;;;;22.89;42.54;101119.66;112105;1264;21263;-40
2023/06/07 06:21:43;;;;;;;;;23.00;22.50;;;;;22.97;42.71;101116.46;111946;1264;20146;-38
2023/06/07 06:24:10;;;;;;;;;26.50;26.00;;;;;23.07;42.69;101120.69;112125;1248;19008;-40
2023/06/07 06:26:38;;;;;;;;;25.00;23.00;;;;;23.08;42.53;101115.65;111894;1264;20613;-40
2023/06/07 06:29:05;;;;;;;;;26.50;26.00;;;;;23.15;42.64;101113.48;112108;1248;19951;-40
2023/06/07 06:31:33;;;;;;;;;26.50;25.00;;;;;23.25;42.41;101114.48;111974;1263;18693;-39
2023/06/07 06:34:00;;;;;;;;;26.50;24.00;;;;;23.34;42.26;101114.67;112131;1248;20595;-40
2023/06/07 06:36:28;;;;;;;;;26.00;23.00;;;;;23.43;42.30;101117.77;111938;1257;18924;-40
2023/06/07 06:38:56;;;;;;;;;27.00;26.00;;;;;23.44;41.63;101116.43;112084;1264;18802;-40
2023/06/07 06:41:23;;;;;;;;;22.50;20.50;;;;;23.38;41.34;101115.11;111971;1248;19242;-40
2023/06/07 06:43:50;;;;;;;;;23.00;22.33;;;;;23.43;41.32;101118.69;112115;1264;18580;-40
2023/06/07 06:46:18;;;;;;;;;23.50;23.00;;;;;23.47;41.29;101116.48;111960;1264;18725;-40
2023/06/07 06:48:45;;;;;;;;;21.00;21.00;;;;;23.57;40.86;101114.24;112128;1248;20952;-39
2023/06/07 06:51:13;;;;;;;;;20.67;20.67;;;;;23.66;40.27;101118.11;111956;1248;20060;-40
2023/06/07 06:53:41;;;;;;;;;20.00;20.00;;;;;23.70;40.17;101116.67;112098;1263;21049;-40
2023/06/07 06:56:08;;;;;;;;;23.00;22.00;;;;;23.65;39.97;101119.49;112112;1263;19324;-39
2023/06/07 06:58:36;;;;;;;;;20.00;19.00;;;;;23.66;39.88;101115.76;112104;1263;18881;-40
2023/06/07 07:01:03;;;;;;;;;22.33;19.67;;;;;23.67;39.77;101114.93;112013;1263;21400;-39
2023/06/07 07:03:31;;;;;;;;;21.00;21.00;;;;;23.77;39.64;101114.96;112077;1248;21900;-41
2023/06/07 07:05:58;;;;;;;;;19.00;17.00;;;;;23.80;39.63;101114.84;112083;1263;19911;-42
2023/06/07 07:08:26;;;;;;;;;19.50;18.50;;;;;23.79;39.66;101120.38;112109;1248;20039;-40
2023/06/07 07:10:53;;;;;;;;;19.00;18.00;;;;;23.76;39.91;101116.58;111954;1263;22219;-40
2023/06/07 07:13:21;;;;;;;;;18.50;16.50;;;;;23.87;39.55;101119.77;112075;1263;20283;-40
2023/06/07 07:15:48;;;;;;;;;17.00;17.00;;;;;23.90;38.94;101119.92;111944;1263;19126;-40
2023/06/07 07:18:15;;;;;;;;;18.00;15.50;;;;;23.96;39.06;101116.05;112090;1248;22119;-40
2023/06/07 07:20:43;;;;;;;;;17.00;16.50;;;;;24.01;38.90;101120.39;111925;1263;18535;-39
2023/06/07 07:23:10;;;;;;;;;18.00;17.00;;;;;24.00;38.58;101117.90;112110;1263;20491;-40
2023/06/07 07:25:38;;;;;;;;;16.00;15.00;;;;;23.91;39.04;101123.77;111951;1263;19325;-40
2023/06/07 07:28:05;;;;;;;;;17.00;16.00;;;;;23.94;39.00;101119.27;112082;1263;19892;-40
2023/06/07 07:30:33;;;;;;;;;19.00;16.50;;;;;24.02;38.80;101118.27;111941;1263;18651;-40
2023/06/07 07:33:00;;;;;;;;;15.00;15.00;;;;;24.14;38.59;101118.57;112115;1263;19291;-42
2023/06/07 07:35:28;;;;;;;;;20.00;18.00;;;;;24.10;38.46;101122.14;111928;1248;21278;-40
2023/06/07 07:37:55;;;;;;;;;13.00;13.00;;;;;24.07;38.15;101120.91;112122;1263;21276;-40
2023/06/07 07:40:23;;;;;;;;;13.00;13.00;;;;;24.11;38.10;101114.91;111941;1264;19337;-40
2023/06/07 07:42:50;;;;;;;;;13.00;13.00;;;;;24.13;38.15;101113.27;112106;1256;20957;-40
2023/06/07 07:45:17;;;;;;;;;13.00;12.00;;;;;24.09;38.32;101115.30;111964;1263;20092;-41
2023/06/07 07:47:45;;;;;;;;;16.00;16.00;;;;;24.24;37.90;101114.61;112134;1263;20773;-40
2023/06/07 07:50:12;;;;;;;;;13.50;13.50;;;;;24.28;37.57;101111.73;111946;1264;18565;-40
2023/06/07 07:52:40;;;;;;;;;16.67;16.33;;;;;24.31;37.25;101114.00;112161;1264;18707;-40
2023/06/07 07:55:07;;;;;;;;;14.00;13.00;;;;;24.26;37.25;101111.30;111996;1263;19169;-40
2023/06/07 07:57:35;;;;;;;;;16.50;14.00;;;;;24.17;37.41;101109.67;112146;1248;20021;-40
2023/06/07 08:00:05;;;;;;;;;17.00;17.00;;;;;24.15;37.71;101110.91;111942;1264;18811;-39
2023/06/07 08:02:32;;;;;;;;;17.33;14.00;;;;;24.15;37.80;101109.90;111957;1256;21419;-40
2023/06/07 08:05:00;;;;;;;;;16.50;16.50;;;;;24.16;37.73;101106.08;112143;1263;18482;-40
2023/06/07 08:07:27;;;;;;;;;16.00;14.50;;;;;24.18;37.54;101109.17;111979;1250;20446;-40
2023/06/07 08:09:55;;;;;;;;;19.00;16.50;;;;;24.23;36.75;101110.08;112161;1248;22011;-40
2023/06/07 08:12:22;;;;;;;;;15.00;13.50;;;;;24.28;36.49;101111.20;111964;1248;20039;-40
2023/06/07 08:14:50;;;;;;;;;15.50;13.50;;;;;24.37;36.24;101107.17;112152;1248;21331;-40
2023/06/07 08:17:18;;;;;;;;;14.00;13.50;;;;;24.40;36.40;101111.42;112019;1250;20890;-40
2023/06/07 08:19:45;;;;;;;;;13.00;13.00;;;;;24.32;36.46;101113.77;112156;1256;18571;-40
2023/06/07 08:22:13;;;;;;;;;13.00;13.00;;;;;24.27;36.53;101111.86;111947;1263;18697;-41
2023/06/07 08:24:40;;;;;;;;;16.00;13.00;;;;;24.25;36.28;101110.61;112142;1263;20638;-40
2023/06/07 08:27:08;;;;;;;;;14.00;14.00;;;;;24.29;35.90;101112.66;111938;1264;18661;-40
2023/06/07 08:29:35;;;;;;;;;13.00;13.00;;;;;24.41;35.66;101110.63;112137;1263;18917;-40
2023/06/07 08:32:03;;;;;;;;;14.00;14.00;;;;;24.50;35.56;101107.75;111918;1256;21948;-42
2023/06/07 08:34:31;;;;;;;;;12.00;12.00;;;;;24.61;34.91;101106.99;112124;1263;18842;-40
2023/06/07 08:36:58;;;;;;;;;12.00;12.00;;;;;24.52;34.99;101106.37;111948;1264;18893;-41
2023/06/07 08:39:26;;;;;;;;;10.00;10.00;;;;;24.51;35.03;101105.15;112051;1257;20969;-41
2023/06/07 08:41:53;;;;;;;;;10.00;10.00;;;;;24.47;35.09;101109.36;112058;1248;20217;-40
2023/06/07 08:44:21;;;;;;;;;13.00;13.00;;;;;24.46;34.68;101103.86;112086;1263;18665;-39
2023/06/07 08:46:49;;;;;;;;;12.00;10.00;;;;;24.48;34.12;101102.67;111938;1263;20696;-40
2023/06/07 08:49:16;;;;;;;;;13.50;13.00;;;;;24.44;33.98;101105.19;112040;1263;18562;-38
2023/06/07 08:51:44;;;;;;;;;12.00;12.00;;;;;24.34;33.99;101103.67;112211;1263;20039;-40
2023/06/07 08:54:11;;;;;;;;;13.00;12.00;;;;;24.32;34.10;101103.75;112080;1248;19356;-40
2023/06/07 08:56:39;;;;;;;;;11.33;10.00;;;;;24.32;34.15;101103.35;112126;1263;20126;-40
2023/06/07 08:59:07;;;;;;;;;12.00;10.00;;;;;24.31;33.96;101108.96;112012;1248;21390;-40
2023/06/07 09:01:36;;;;;;;;;13.00;12.00;;;;;24.33;33.81;101106.38;112209;1263;19282;-40
2023/06/07 09:04:03;;;;;;;;;13.00;12.33;;;;;24.43;33.56;101099.63;111926;1259;20214;-40
2023/06/07 09:06:34;;;;;;;;;20.00;17.00;;;;;24.43;33.73;101103.28;112111;1263;18669;-40
2023/06/07 09:09:02;;;;;;;;;13.00;13.00;;;;;24.52;33.88;101099.23;112040;1263;19559;-40
2023/06/07 09:11:30;;;;;;;;;14.00;14.00;;;;;24.57;33.51;101099.14;112145;1263;18581;-40
2023/06/07 09:13:57;;;;;;;;;13.50;13.00;;;;;24.48;33.37;101109.41;111978;1263;20179;-40
2023/06/07 09:16:25;;;;;;;;;14.00;13.00;;;;;24.41;33.52;101109.16;112162;1248;20801;-40
2023/06/07 09:18:55;;;;;;;;;13.00;13.00;;;;;24.37;33.36;101108.47;111947;1263;18525;-40
2023/06/07 09:21:22;;;;;;;;;10.00;10.00;;;;;24.34;33.40;101107.33;111978;1256;18728;-40
2023/06/07 09:23:50;;;;;;;;;13.00;12.00;;;;;24.31;33.21;101100.28;112205;1248;20745;-40
2023/06/07 09:26:17;;;;;;;;;13.00;12.00;;;;;24.37;33.25;101100.04;111963;1263;18760;-39
2023/06/07 09:28:46;;;;;;;;;16.00;14.00;;;;;24.47;32.95;101096.95;112145;1263;18834;-40
2023/06/07 09:31:14;;;;;;;;;13.00;13.00;;;;;24.61;32.77;101101.42;112233;1248;20793;-43
2023/06/07 09:33:41;;;;;;;;;12.00;12.00;;;;;24.58;32.85;101103.61;112052;1248;19938;-40
2023/06/07 09:36:09;;;;;;;;;13.00;12.50;;;;;24.58;32.78;101104.52;112239;1263;18611;-40
2023/06/07 09:38:36;;;;;;;;;12.00;12.00;;;;;24.45;33.19;101097.33;112080;1251;21032;-40
2023/06/07 09:41:04;;;;;;;;;12.00;12.00;;;;;24.55;33.08;101108.21;112225;1248;21458;-41
2023/06/07 09:43:31;;;;;;;;;13.00;13.00;;;;;24.42;33.09;101105.39;112066;1256;18816;-40
2023/06/07 09:45:59;;;;;;;;;13.00;13.00;;;;;24.35;33.27;101104.32;112237;1248;21859;-41
2023/06/07 09:48:26;;;;;;;;;13.00;13.00;;;;;24.37;33.28;101111.71;112072;1263;19899;-40
2023/06/07 09:50:54;;;;;;;;;12.33;11.33;;;;;24.43;32.95;101112.84;112156;1263;19024;-40
2023/06/07 09:53:21;;;;;;;;;12.00;12.00;;;;;24.36;33.02;101108.52;112079;1248;20763;-40
2023/06/07 09:55:48;;;;;;;;;10.00;9.00;;;;;24.31;32.83;101102.59;112102;1263;18508;-40
2023/06/07 09:58:17;;;;;;;;;13.00;10.00;;;;;24.29;33.15;101103.06;112082;1248;20442;-40
2023/06/07 10:00:44;;;;;;;;;13.00;13.00;;;;;24.41;33.07;101099.23;112186;1263;20635;-40
2023/06/07 10:03:12;;;;;;;;;12.00;12.00;;;;;24.53;33.09;101091.80;112003;1264;18538;-40
2023/06/07 10:05:41;;;;;;;;;12.00;11.00;;;;;24.52;33.52;101090.23;112155;1263;18724;-40
2023/06/07 10:08:08;;;;;;;;;13.00;12.00;;;;;24.49;33.50;101090.15;111916;1264;19327;-41
2023/06/07 10:10:36;;;;;;;;;13.00;13.00;;;;;24.52;33.31;101089.93;112092;1263;19898;-40
2023/06/07 10:13:03;;;;;;;;;17.00;14.00;;;;;24.45;33.46;101086.65;111975;1264;18897;-40
2023/06/07 10:15:30;;;;;;;;;12.00;12.00;;;;;24.47;33.65;101092.88;112110;1263;20692;-40
2023/06/07 10:17:58;;;;;;;;;12.00;12.00;;;;;24.56;33.58;101084.70;111929;1248;20030;-40
2023/06/07 10:20:25;;;;;;;;;16.00;13.00;;;;;24.55;33.45;101080.73;112102;1263;19986;-40
2023/06/07 10:22:54;;;;;;;;;13.00;13.00;;;;;24.50;33.46;101082.84;111930;1248;20640;-40
2023/06/07 10:25:22;;;;;;;;;12.00;10.00;;;;;24.48;33.46;101082.42;111987;1248;18621;-40
2023/06/07 10:27:50;;;;;;;;;12.00;12.00;;;;;24.47;33.33;101078.91;112171;1263;20359;-40
2023/06/07 10:30:18;;;;;;;;;12.00;12.00;;;;;24.40;33.43;101076.09;111940;1263;20832;-41
2023/06/07 10:32:46;;;;;;;;;10.00;10.00;;;;;24.33;33.83;101072.38;112065;1263;21620;-40
2023/06/07 10:35:13;;;;;;;;;10.00;9.50;;;;;24.30;34.10;101067.92;112153;1263;20031;-41
2023/06/07 10:37:41;;;;;;;;;10.00;10.00;;;;;24.25;34.14;101067.51;112076;1248;20639;-40
2023/06/07 10:40:11;;;;;;;;;13.00;12.00;;;;;24.36;34.02;101068.08;112023;1263;20237;-41
2023/06/07 10:42:38;;;;;;;;;12.00;12.00;;;;;24.40;33.78;101068.46;111929;1248;20089;-40
2023/06/07 10:45:05;;;;;;;;;13.00;12.00;;;;;24.41;33.58;101068.34;112109;1263;20718;-40
2023/06/07 10:47:33;;;;;;;;;12.00;12.00;;;;;24.40;33.57;101067.59;111941;1264;19968;-40
2023/06/07 10:50:01;;;;;;;;;12.50;12.00;;;;;24.36;33.54;101067.11;112139;1263;18594;-39
2023/06/07 10:52:28;;;;;;;;;13.50;13.00;;;;;24.33;33.68;101062.41;111988;1248;20688;-40
2023/06/07 10:54:55;;;;;;;;;13.00;13.00;;;;;24.35;33.30;101058.88;112054;1263;20241;-40
2023/06/07 10:57:23;;;;;;;;;12.00;12.00;;;;;24.37;33.00;101058.38;111955;1256;21387;-40
2023/06/07 10:59:50;;;;;;;;;10.00;10.00;;;;;24.37;32.95;101058.95;112111;1263;20861;-40
2023/06/07 11:02:18;;;;;;;;;14.00;14.00;;;;;24.47;32.53;101058.02;111906;1263;18707;-39
2023/06/07 11:04:45;;;;;;;;;13.00;12.00;;;;;24.62;32.01;101057.91;112097;1263;20335;-44